Time;durP1;ratioP1;P1;durP2;ratioP2;P2;SDS_P1;SDS_P2;PMS_P1;PMS_P2;Temp;Humidity;BMP_temperature;BMP_pressure;BME280_temperature;BME280_humidity;BME280_pressure;Samples;Min_cycle;Max_cycle;Signal;HPM_P1;HPM_P2
2023/04/16 00:02:06;;;;;;;2.60;1.23;;;19.70;64.90;;;;;;5025168;28;20052;-75
2023/04/16 00:04:33;;;;;;;2.20;0.93;;;19.70;65.00;;;;;;5041543;28;20500;-75
2023/04/16 00:07:00;;;;;;;2.95;0.52;;;19.70;65.00;;;;;;5033287;28;20417;-75
2023/04/16 00:09:27;;;;;;;2.35;1.23;;;19.70;65.00;;;;;;5033763;28;20064;-76
2023/04/16 00:11:55;;;;;;;2.38;1.05;;;19.70;65.10;;;;;;5031249;28;20073;-75
2023/04/16 00:14:22;;;;;;;1.90;1.10;;;19.60;65.10;;;;;;5026170;28;20592;-75
2023/04/16 00:16:49;;;;;;;2.15;1.20;;;19.60;65.10;;;;;;5026481;28;20053;-75
2023/04/16 00:19:16;;;;;;;3.03;1.33;;;19.60;65.20;;;;;;5029376;28;20049;-75
2023/04/16 00:21:44;;;;;;;1.80;0.90;;;19.50;65.70;;;;;;5033715;28;20049;-76
2023/04/16 00:24:11;;;;;;;2.10;1.00;;;19.50;65.10;;;;;;5038861;28;20064;-75
2023/04/16 00:26:38;;;;;;;1.85;0.88;;;19.50;65.10;;;;;;5037405;28;20066;-76
2023/04/16 00:29:06;;;;;;;2.45;1.27;;;19.50;65.10;;;;;;5035975;28;20064;-75
2023/04/16 00:31:34;;;;;;;2.10;1.00;;;19.50;65.10;;;;;;5019044;28;20054;-75
2023/04/16 00:34:01;;;;;;;2.00;1.48;;;19.50;65.10;;;;;;5034289;28;20127;-74
2023/04/16 00:36:28;;;;;;;2.25;1.10;;;19.60;65.10;;;;;;5036837;28;20052;-75
2023/04/16 00:38:56;;;;;;;2.53;0.93;;;19.60;65.00;;;;;;5037705;28;20049;-75
2023/04/16 00:41:23;;;;;;;2.25;1.17;;;19.70;65.00;;;;;;5036363;28;20048;-75
2023/04/16 00:43:50;;;;;;;2.78;1.45;;;19.70;64.80;;;;;;5037232;28;20036;-76
2023/04/16 00:46:19;;;;;;;2.03;1.17;;;19.70;64.80;;;;;;5026556;28;20072;-75
2023/04/16 00:48:47;;;;;;;1.92;1.30;;;19.80;64.80;;;;;;5032576;28;20103;-75
2023/04/16 00:51:14;;;;;;;2.70;1.48;;;19.90;64.70;;;;;;5043890;28;20502;-75
2023/04/16 00:53:42;;;;;;;1.92;1.38;;;19.90;64.50;;;;;;5032359;28;20057;-75
2023/04/16 00:56:10;;;;;;;1.83;1.27;;;20.00;64.50;;;;;;5035261;28;20533;-76
2023/04/16 00:58:37;;;;;;;2.15;0.90;;;20.00;64.40;;;;;;5034931;28;20537;-76
2023/04/16 01:01:05;;;;;;;1.65;0.88;;;20.10;64.20;;;;;;5037741;28;20048;-75
2023/04/16 01:03:38;;;;;;;1.88;1.10;;;20.20;64.20;;;;;;5044985;28;20041;-75
2023/04/16 01:06:06;;;;;;;1.80;0.60;;;20.20;64.10;;;;;;5022991;28;20407;-75
2023/04/16 01:08:33;;;;;;;2.30;1.17;;;20.20;64.00;;;;;;5034178;28;20053;-75
2023/04/16 01:11:00;;;;;;;2.40;1.38;;;20.20;64.00;;;;;;5031699;28;20049;-75
2023/04/16 01:13:27;;;;;;;1.58;0.88;;;20.20;64.00;;;;;;5030674;28;20060;-75
2023/04/16 01:15:54;;;;;;;2.90;1.27;;;20.20;64.00;;;;;;5032301;28;20059;-76
2023/04/16 01:18:22;;;;;;;3.97;1.50;;;20.20;64.00;;;;;;5043994;28;20052;-75
2023/04/16 01:20:51;;;;;;;2.33;0.68;;;20.20;64.00;;;;;;5018045;28;20446;-75
2023/04/16 01:23:18;;;;;;;1.90;1.17;;;20.10;64.00;;;;;;5034917;28;20072;-75
2023/04/16 01:25:45;;;;;;;1.90;1.10;;;20.10;64.00;;;;;;5048994;28;20056;-75
2023/04/16 01:28:12;;;;;;;2.22;1.10;;;20.10;64.10;;;;;;5040939;28;20056;-75
2023/04/16 01:30:40;;;;;;;2.15;0.90;;;20.10;64.20;;;;;;5029658;28;20391;-75
2023/04/16 01:33:07;;;;;;;2.28;1.58;;;20.10;64.20;;;;;;5041137;28;20045;-75
2023/04/16 01:35:35;;;;;;;1.75;1.15;;;20.00;64.20;;;;;;5020834;28;20041;-75
2023/04/16 01:38:03;;;;;;;2.47;1.38;;;20.00;64.20;;;;;;5018621;28;20049;-75
2023/04/16 01:40:30;;;;;;;3.15;1.40;;;20.00;64.20;;;;;;5029534;28;20049;-75
2023/04/16 01:42:57;;;;;;;1.88;0.98;;;20.00;64.30;;;;;;5034540;28;20056;-76
2023/04/16 01:45:25;;;;;;;3.65;1.45;;;19.90;64.30;;;;;;5032915;28;20045;-75
2023/04/16 01:47:52;;;;;;;2.25;1.27;;;19.90;64.30;;;;;;5034571;28;20469;-75
2023/04/16 01:50:20;;;;;;;3.65;1.30;;;19.90;64.30;;;;;;5030543;28;20053;-75
2023/04/16 01:52:47;;;;;;;2.05;0.60;;;19.80;64.30;;;;;;5039197;28;20299;-74
2023/04/16 01:55:15;;;;;;;2.17;1.30;;;19.80;64.40;;;;;;5034290;28;20049;-75
2023/04/16 01:57:42;;;;;;;2.47;1.83;;;19.80;64.40;;;;;;5042107;28;20055;-75
2023/04/16 02:00:10;;;;;;;1.83;1.05;;;19.80;64.50;;;;;;5037339;28;20038;-75
2023/04/16 02:02:38;;;;;;;2.35;1.08;;;19.70;64.50;;;;;;5011304;28;20068;-75
2023/04/16 02:05:05;;;;;;;3.58;1.33;;;19.70;64.50;;;;;;5031055;28;20060;-75
2023/04/16 02:07:32;;;;;;;2.25;0.93;;;19.70;64.50;;;;;;5032865;28;20053;-75
2023/04/16 02:10:00;;;;;;;2.45;1.20;;;19.70;64.50;;;;;;5034752;28;20597;-75
2023/04/16 02:12:28;;;;;;;2.30;1.30;;;19.60;64.50;;;;;;5038115;28;20068;-75
2023/04/16 02:14:55;;;;;;;2.42;1.10;;;19.60;64.50;;;;;;5030788;28;20060;-75
2023/04/16 02:17:22;;;;;;;1.90;1.00;;;19.60;64.60;;;;;;5033842;28;20042;-75
2023/04/16 02:19:49;;;;;;;2.30;1.33;;;19.60;64.60;;;;;;5039862;28;20064;-75
2023/04/16 02:22:16;;;;;;;2.65;1.58;;;19.50;64.60;;;;;;5027441;28;20049;-74
2023/04/16 02:24:43;;;;;;;2.83;1.58;;;19.50;64.70;;;;;;5043922;28;20045;-75
2023/04/16 02:27:10;;;;;;;2.40;1.42;;;19.50;64.70;;;;;;5038147;28;20049;-75
2023/04/16 02:29:38;;;;;;;2.63;1.13;;;19.50;64.70;;;;;;5046887;28;20064;-75
2023/04/16 02:32:05;;;;;;;2.55;1.38;;;19.50;64.60;;;;;;5041380;28;20053;-75
2023/04/16 02:34:33;;;;;;;2.05;1.15;;;19.60;64.60;;;;;;5035418;28;20040;-76
2023/04/16 02:37:00;;;;;;;2.45;1.35;;;19.60;65.20;;;;;;5043717;28;20160;-75
2023/04/16 02:39:27;;;;;;;2.22;1.17;;;19.60;64.50;;;;;;5039609;28;20052;-75
2023/04/16 02:41:54;;;;;;;2.42;1.40;;;19.70;64.50;;;;;;5033455;28;20041;-74
2023/04/16 02:44:21;;;;;;;1.80;1.33;;;19.70;64.40;;;;;;5038147;28;20056;-75
2023/04/16 02:46:50;;;;;;;2.72;1.42;;;19.70;64.30;;;;;;5033003;28;20049;-75
2023/04/16 02:49:17;;;;;;;2.78;1.33;;;19.80;64.20;;;;;;5032068;28;20049;-75
2023/04/16 02:51:44;;;;;;;1.63;0.93;;;19.90;64.20;;;;;;5024800;28;20049;-75
2023/04/16 02:54:10;;;;;;;2.33;1.10;;;19.90;64.10;;;;;;5042646;28;20410;-75
2023/04/16 02:56:37;;;;;;;3.03;1.38;;;20.00;64.00;;;;;;5032897;28;20054;-74
2023/04/16 02:59:04;;;;;;;2.42;1.42;;;20.10;63.90;;;;;;5031757;28;20506;-75
2023/04/16 03:01:31;;;;;;;2.88;1.33;;;20.10;63.80;;;;;;5043101;28;20053;-75
2023/04/16 03:04:00;;;;;;;2.53;1.35;;;20.10;63.80;;;;;;5032899;28;20049;-75
2023/04/16 03:06:27;;;;;;;2.92;1.23;;;20.10;63.80;;;;;;5042497;28;20505;-74
2023/04/16 03:08:53;;;;;;;2.35;1.30;;;20.10;63.70;;;;;;5030823;28;20146;-75
2023/04/16 03:11:20;;;;;;;1.77;1.15;;;20.10;63.70;;;;;;5032560;28;20617;-74
2023/04/16 03:13:47;;;;;;;2.30;1.45;;;20.10;63.80;;;;;;5032263;28;20069;-74
2023/04/16 03:16:14;;;;;;;2.28;1.52;;;20.10;63.80;;;;;;5037476;28;20049;-75
2023/04/16 03:18:41;;;;;;;3.15;1.27;;;20.10;63.80;;;;;;5027487;28;20088;-75
2023/04/16 03:21:10;;;;;;;2.15;1.13;;;20.10;63.90;;;;;;5022105;28;20050;-75
2023/04/16 03:23:37;;;;;;;2.10;1.23;;;20.00;63.80;;;;;;5029556;28;20057;-75
2023/04/16 03:26:04;;;;;;;2.35;1.33;;;20.00;63.90;;;;;;5035433;28;20048;-75
2023/04/16 03:28:31;;;;;;;2.83;1.45;;;20.00;64.00;;;;;;5020927;28;20049;-75
2023/04/16 03:30:58;;;;;;;2.17;1.48;;;19.90;64.00;;;;;;5035914;28;20775;-75
2023/04/16 03:33:25;;;;;;;2.58;1.55;;;19.90;63.90;;;;;;5035523;28;20053;-75
2023/04/16 03:35:58;;;;;;;2.33;1.08;;;19.90;64.00;;;;;;5034773;28;20872;-75
2023/04/16 03:38:26;;;;;;;2.38;1.65;;;19.90;64.00;;;;;;5027961;28;20049;-75
2023/04/16 03:40:53;;;;;;;2.90;1.85;;;19.90;64.10;;;;;;5032768;28;20517;-75
2023/04/16 03:43:20;;;;;;;3.08;1.65;;;19.80;64.00;;;;;;5028123;28;20049;-75
2023/04/16 03:45:47;;;;;;;1.95;1.48;;;19.80;64.10;;;;;;5033410;28;20163;-75
2023/04/16 03:48:14;;;;;;;1.90;1.40;;;19.80;64.10;;;;;;5039362;28;20505;-75
2023/04/16 03:50:46;;;;;;;1.83;0.50;;;19.70;64.10;;;;;;5016186;28;20394;-75
2023/04/16 03:53:13;;;;;;;1.98;0.60;;;19.70;64.10;;;;;;5035433;28;20724;-75
2023/04/16 03:55:41;;;;;;;1.83;1.20;;;19.70;64.20;;;;;;5035242;28;20057;-75
2023/04/16 03:58:09;;;;;;;2.00;1.33;;;19.70;64.20;;;;;;5044158;28;20513;-74
2023/04/16 04:00:35;;;;;;;2.15;1.65;;;19.70;64.20;;;;;;5028199;28;20048;-75
2023/04/16 04:03:02;;;;;;;2.90;1.17;;;19.60;64.80;;;;;;5040932;28;20037;-75
2023/04/16 04:05:29;;;;;;;2.60;1.58;;;19.60;64.30;;;;;;5045628;28;20771;-75
2023/04/16 04:07:56;;;;;;;2.92;1.50;;;19.60;64.90;;;;;;5034217;28;20490;-75
2023/04/16 04:10:23;;;;;;;2.67;1.30;;;19.60;64.40;;;;;;5051461;28;20497;-74
2023/04/16 04:12:52;;;;;;;2.33;1.63;;;19.50;64.30;;;;;;5029930;28;20049;-75
2023/04/16 04:15:19;;;;;;;2.30;1.30;;;19.50;64.30;;;;;;5047944;28;20048;-75
2023/04/16 04:17:46;;;;;;;2.28;1.60;;;19.50;64.30;;;;;;5026821;28;20532;-73
2023/04/16 04:20:13;;;;;;;2.53;1.15;;;19.60;64.40;;;;;;5039288;28;20433;-74
2023/04/16 04:22:40;;;;;;;2.00;0.88;;;19.60;64.30;;;;;;5037939;28;20452;-74
2023/04/16 04:25:07;;;;;;;2.15;0.95;;;19.60;64.20;;;;;;5036680;28;20438;-75
2023/04/16 04:27:34;;;;;;;1.80;1.25;;;19.70;64.20;;;;;;5040023;28;20048;-75
2023/04/16 04:30:03;;;;;;;2.35;1.63;;;19.70;64.10;;;;;;5034398;28;20057;-75
2023/04/16 04:32:30;;;;;;;1.95;1.23;;;19.70;64.10;;;;;;5033846;28;20060;-75
2023/04/16 04:34:57;;;;;;;2.28;1.73;;;19.80;64.00;;;;;;5026627;28;20041;-75
2023/04/16 04:37:24;;;;;;;1.88;1.38;;;19.80;63.90;;;;;;5035495;28;20040;-75
2023/04/16 04:39:51;;;;;;;1.85;1.10;;;19.90;63.80;;;;;;5036812;28;20053;-75
2023/04/16 04:42:19;;;;;;;2.20;1.30;;;19.90;63.80;;;;;;5029856;28;20049;-75
2023/04/16 04:44:46;;;;;;;2.30;1.17;;;20.00;64.20;;;;;;5032769;28;20045;-75
2023/04/16 04:47:15;;;;;;;1.98;1.25;;;20.10;64.20;;;;;;5034718;28;20045;-75
2023/04/16 04:49:42;;;;;;;2.05;1.60;;;20.20;63.50;;;;;;5036764;28;20049;-75
2023/04/16 04:52:09;;;;;;;1.90;0.55;;;20.20;63.40;;;;;;5037982;28;20464;-75
2023/04/16 04:54:40;;;;;;;1.65;1.17;;;20.30;63.40;;;;;;5020911;28;20143;-73
2023/04/16 04:57:07;;;;;;;3.13;1.40;;;20.20;63.40;;;;;;5027085;28;20060;-75
2023/04/16 04:59:34;;;;;;;1.75;1.25;;;20.20;63.30;;;;;;5036129;28;20049;-75
2023/04/16 05:02:02;;;;;;;2.75;1.58;;;20.20;63.30;;;;;;5026667;28;20049;-75
2023/04/16 05:04:31;;;;;;;2.22;1.42;;;20.30;63.40;;;;;;5035358;28;20071;-75
2023/04/16 05:06:58;;;;;;;2.13;1.33;;;20.20;63.40;;;;;;5033341;28;20053;-74
2023/04/16 05:09:25;;;;;;;2.83;1.48;;;20.20;63.40;;;;;;5029194;28;20050;-75
2023/04/16 05:11:52;;;;;;;1.98;1.38;;;20.20;63.40;;;;;;5029859;28;20770;-75
2023/04/16 05:14:19;;;;;;;2.30;1.38;;;20.10;63.50;;;;;;5032270;28;20045;-75
2023/04/16 05:16:46;;;;;;;2.05;1.42;;;20.10;63.50;;;;;;5035880;28;20057;-76
2023/04/16 05:19:13;;;;;;;1.90;1.23;;;20.10;63.60;;;;;;5044111;28;20049;-75
2023/04/16 05:21:41;;;;;;;1.83;1.20;;;20.10;63.60;;;;;;5036645;28;20161;-75
2023/04/16 05:24:08;;;;;;;2.90;1.70;;;20.00;63.60;;;;;;5044596;28;20060;-75
2023/04/16 05:26:35;;;;;;;2.22;1.40;;;20.00;63.70;;;;;;5047315;28;20434;-75
2023/04/16 05:29:02;;;;;;;2.25;1.77;;;20.00;63.70;;;;;;5038340;28;20045;-75
2023/04/16 05:31:29;;;;;;;5.80;1.40;;;20.00;64.30;;;;;;5042556;28;20049;-75
2023/04/16 05:33:56;;;;;;;2.30;1.25;;;19.90;63.70;;;;;;5037300;28;20041;-76
2023/04/16 05:36:23;;;;;;;1.95;0.70;;;19.90;63.80;;;;;;5049831;28;20406;-75
2023/04/16 05:38:51;;;;;;;1.90;1.20;;;19.90;63.80;;;;;;5044520;28;20056;-75
2023/04/16 05:41:18;;;;;;;2.40;1.40;;;19.90;63.80;;;;;;5039859;28;20052;-75
2023/04/16 05:43:45;;;;;;;1.70;1.20;;;19.80;63.80;;;;;;5040300;28;20056;-75
2023/04/16 05:46:12;;;;;;;2.10;1.45;;;19.80;63.90;;;;;;5040697;28;20045;-75
2023/04/16 05:48:39;;;;;;;2.33;1.45;;;19.80;63.90;;;;;;5029101;28;20069;-75
2023/04/16 05:51:06;;;;;;;2.10;1.33;;;19.80;63.90;;;;;;5027301;28;20063;-75
2023/04/16 05:53:33;;;;;;;3.03;1.38;;;19.70;63.90;;;;;;5029807;28;20048;-75
2023/04/16 05:56:01;;;;;;;2.55;1.30;;;19.70;64.00;;;;;;5031049;28;20084;-75
2023/04/16 05:58:28;;;;;;;2.35;1.40;;;19.70;64.00;;;;;;5033793;28;20049;-75
2023/04/16 06:00:55;;;;;;;2.33;1.40;;;19.60;64.00;;;;;;5028417;28;20053;-74
2023/04/16 06:03:22;;;;;;;2.60;1.30;;;19.60;64.00;;;;;;5030149;28;20057;-75
2023/04/16 06:05:49;;;;;;;2.17;1.33;;;19.60;64.00;;;;;;5035767;28;20064;-75
2023/04/16 06:08:16;;;;;;;3.42;1.15;;;19.60;64.10;;;;;;5037157;28;20099;-75
2023/04/16 06:10:45;;;;;;;1.67;1.10;;;19.60;64.10;;;;;;5022773;28;20064;-75
2023/04/16 06:13:13;;;;;;;2.03;1.50;;;19.60;64.20;;;;;;5027032;28;20054;-75
2023/04/16 06:15:40;;;;;;;1.90;1.40;;;19.60;64.20;;;;;;5023771;28;20053;-74
2023/04/16 06:18:07;;;;;;;1.98;1.40;;;19.60;64.20;;;;;;5029826;28;20055;-75
2023/04/16 06:20:34;;;;;;;1.85;1.60;;;19.60;64.20;;;;;;5031641;28;20045;-75
2023/04/16 06:23:01;;;;;;;2.03;1.42;;;19.70;64.10;;;;;;5036879;28;20563;-75
2023/04/16 06:25:28;;;;;;;2.30;1.67;;;19.70;64.00;;;;;;5032411;28;20045;-75
2023/04/16 06:27:55;;;;;;;2.35;1.23;;;19.70;63.90;;;;;;5036447;28;20694;-75
2023/04/16 06:30:23;;;;;;;1.98;1.42;;;19.80;63.90;;;;;;5039115;28;20129;-75
2023/04/16 06:32:50;;;;;;;2.75;1.70;;;19.90;63.80;;;;;;5031775;28;20060;-75
2023/04/16 06:35:18;;;;;;;2.35;1.08;;;19.80;63.70;;;;;;5036505;28;20053;-75
2023/04/16 06:37:45;;;;;;;1.80;1.25;;;19.90;63.60;;;;;;5032426;28;20049;-75
2023/04/16 06:40:13;;;;;;;1.92;1.38;;;20.00;63.60;;;;;;5032970;28;20064;-75
2023/04/16 06:42:40;;;;;;;2.20;1.48;;;20.10;64.10;;;;;;5031235;28;20073;-75
2023/04/16 06:45:08;;;;;;;2.28;1.38;;;20.10;63.40;;;;;;5037113;28;20056;-75
2023/04/16 06:47:37;;;;;;;1.92;1.38;;;20.20;63.40;;;;;;5048568;28;20049;-75
2023/04/16 06:50:04;;;;;;;2.05;1.25;;;20.20;63.30;;;;;;5019010;28;20050;-74
2023/04/16 06:52:31;;;;;;;1.95;1.33;;;20.20;63.30;;;;;;5030923;28;20049;-75
2023/04/16 06:54:58;;;;;;;2.05;1.42;;;20.20;63.20;;;;;;5033217;28;20045;-75
2023/04/16 06:57:25;;;;;;;2.45;1.40;;;20.30;63.30;;;;;;5036848;28;20044;-74
2023/04/16 06:59:52;;;;;;;1.70;0.60;;;20.30;63.30;;;;;;5036554;28;20399;-75
2023/04/16 07:02:19;;;;;;;2.17;1.35;;;20.20;63.30;;;;;;5026776;28;20056;-75
2023/04/16 07:04:47;;;;;;;2.33;1.60;;;20.20;63.90;;;;;;5032876;28;20053;-75
2023/04/16 07:07:14;;;;;;;2.10;1.20;;;20.20;63.30;;;;;;5033407;28;20053;-75
2023/04/16 07:09:41;;;;;;;2.25;1.38;;;20.20;63.40;;;;;;5036558;28;20049;-75
2023/04/16 07:12:08;;;;;;;2.33;1.58;;;20.20;63.40;;;;;;5015309;28;20844;-75
2023/04/16 07:14:35;;;;;;;2.63;1.70;;;20.10;63.40;;;;;;5042479;28;20119;-75
2023/04/16 07:17:02;;;;;;;2.17;1.73;;;20.10;63.40;;;;;;5039128;28;20148;-75
2023/04/16 07:19:31;;;;;;;2.03;1.33;;;20.10;63.50;;;;;;5043995;28;20044;-75
2023/04/16 07:22:00;;;;;;;2.03;1.20;;;20.10;63.50;;;;;;5047047;28;20075;-74
2023/04/16 07:24:27;;;;;;;2.13;1.40;;;20.00;63.50;;;;;;5034006;28;20537;-75
2023/04/16 07:26:54;;;;;;;2.10;1.38;;;20.00;63.50;;;;;;5038585;28;20076;-75
2023/04/16 07:29:21;;;;;;;2.25;1.75;;;20.00;63.60;;;;;;5027911;28;20049;-75
2023/04/16 07:31:48;;;;;;;1.80;1.20;;;20.00;63.70;;;;;;5045679;28;20091;-74
2023/04/16 07:34:15;;;;;;;2.50;1.73;;;20.00;63.70;;;;;;5046335;28;20045;-75
2023/04/16 07:36:42;;;;;;;2.40;1.67;;;19.90;63.70;;;;;;5044543;28;20506;-75
2023/04/16 07:39:12;;;;;;;1.80;1.30;;;19.90;63.70;;;;;;5027700;28;20041;-76
2023/04/16 07:41:40;;;;;;;2.53;1.70;;;19.80;63.70;;;;;;5023107;28;20133;-76
2023/04/16 07:44:07;;;;;;;2.03;0.82;;;19.90;63.80;;;;;;5026117;28;20266;-76
2023/04/16 07:46:34;;;;;;;2.13;1.33;;;19.90;63.80;;;;;;5034644;28;20052;-75
2023/04/16 07:49:01;;;;;;;1.83;1.27;;;19.90;63.80;;;;;;5026754;28;20052;-75
2023/04/16 07:51:27;;;;;;;1.98;1.27;;;19.90;63.80;;;;;;5028036;28;20057;-76
2023/04/16 07:53:54;;;;;;;2.10;1.50;;;19.80;63.80;;;;;;5021374;28;20064;-76
2023/04/16 07:56:23;;;;;;;2.50;1.48;;;19.80;63.90;;;;;;5024406;28;20057;-76
2023/04/16 07:58:50;;;;;;;2.50;1.35;;;19.80;63.80;;;;;;5013629;28;20057;-75
2023/04/16 08:01:17;;;;;;;2.05;1.40;;;19.80;63.90;;;;;;5016331;28;20064;-75
2023/04/16 08:03:44;;;;;;;2.55;1.38;;;19.80;63.90;;;;;;5021350;28;20056;-74
2023/04/16 08:06:11;;;;;;;2.45;1.80;;;19.80;64.50;;;;;;5021167;28;20053;-75
2023/04/16 08:08:37;;;;;;;2.83;1.85;;;19.80;63.90;;;;;;5022608;28;20056;-76
2023/04/16 08:11:04;;;;;;;1.92;1.50;;;19.80;63.90;;;;;;5022705;28;20044;-76
2023/04/16 08:13:33;;;;;;;2.20;1.50;;;19.70;64.00;;;;;;5019341;28;20060;-75
2023/04/16 08:16:00;;;;;;;2.28;1.65;;;19.70;64.00;;;;;;5011333;28;20042;-76
2023/04/16 08:18:27;;;;;;;2.03;1.30;;;19.70;64.00;;;;;;5020114;28;20144;-75
2023/04/16 08:20:54;;;;;;;2.47;1.73;;;19.70;64.00;;;;;;5022112;28;20052;-75
2023/04/16 08:23:21;;;;;;;2.50;1.73;;;19.70;64.00;;;;;;5022761;28;20049;-75
2023/04/16 08:25:48;;;;;;;3.50;1.73;;;19.70;64.00;;;;;;5023868;28;20050;-75
2023/04/16 08:28:15;;;;;;;2.28;1.60;;;19.70;64.00;;;;;;5020691;28;20049;-75
2023/04/16 08:30:44;;;;;;;2.33;1.67;;;19.70;64.00;;;;;;5019331;28;20082;-75
2023/04/16 08:33:12;;;;;;;2.75;1.50;;;19.70;64.00;;;;;;5013833;28;20042;-76
2023/04/16 08:35:40;;;;;;;2.25;1.48;;;19.70;64.00;;;;;;5023482;28;20077;-76
2023/04/16 08:38:07;;;;;;;2.20;1.73;;;19.70;64.50;;;;;;5029913;28;20699;-87
2023/04/16 08:40:38;;;;;;;2.08;1.27;;;19.80;64.10;;;;;;5024473;28;20134;-82
2023/04/16 08:43:10;;;;;;;1.52;1.17;;;19.80;64.10;;;;;;5026352;28;20122;-82
2023/04/16 08:45:38;;;;;;;2.10;1.60;;;19.90;64.70;;;;;;5039518;28;20060;-82
2023/04/16 08:48:07;;;;;;;2.80;1.67;;;19.90;64.00;;;;;;5028411;28;20050;-82
2023/04/16 08:50:36;;;;;;;2.17;1.27;;;20.00;64.00;;;;;;5030037;28;20477;-78
2023/04/16 08:53:06;;;;;;;3.30;1.42;;;20.10;63.90;;;;;;5032503;28;20060;-75
2023/04/16 08:55:37;;;;;;;2.08;1.40;;;20.20;63.90;;;;;;5022974;28;20111;-75
2023/04/16 08:58:13;;;;;;;3.20;1.67;;;20.20;63.80;;;;;;5022502;28;20045;-75
2023/04/16 09:00:40;;;;;;;3.58;1.40;;;20.30;63.70;;;;;;5034516;28;20052;-76
2023/04/16 09:03:09;;;;;;;2.22;1.13;;;20.40;63.60;;;;;;5015744;28;20046;-75
2023/04/16 09:05:38;;;;;;;2.38;1.45;;;20.50;63.60;;;;;;5019996;28;20092;-75
2023/04/16 09:08:05;;;;;;;2.63;1.48;;;20.50;64.10;;;;;;5034774;28;20056;-75
2023/04/16 09:10:33;;;;;;;2.00;1.25;;;20.50;63.50;;;;;;5033243;28;20128;-75
2023/04/16 09:13:00;;;;;;;2.00;1.20;;;20.60;63.50;;;;;;5035458;28;20108;-76
2023/04/16 09:15:28;;;;;;;2.50;1.25;;;20.60;63.50;;;;;;5028723;28;20103;-74
2023/04/16 09:17:56;;;;;;;4.82;1.15;;;20.60;63.50;;;;;;5030972;28;20049;-75
2023/04/16 09:20:24;;;;;;;2.60;1.33;;;20.60;63.60;;;;;;5029697;28;20056;-75
2023/04/16 09:22:51;;;;;;;2.30;1.50;;;20.60;63.60;;;;;;5018793;28;20045;-75
2023/04/16 09:25:21;;;;;;;2.08;1.55;;;20.60;63.70;;;;;;5032356;28;20466;-74
2023/04/16 09:27:50;;;;;;;1.80;1.42;;;20.60;63.70;;;;;;5027805;28;20046;-75
2023/04/16 09:30:22;;;;;;;3.08;1.55;;;20.60;63.70;;;;;;5039490;28;20049;-75
2023/04/16 09:32:50;;;;;;;2.10;1.38;;;20.50;63.80;;;;;;5027678;28;20061;-75
2023/04/16 09:35:19;;;;;;;2.17;1.45;;;20.60;63.80;;;;;;5042122;28;20049;-75
2023/04/16 09:37:56;;;;;;;2.38;1.17;;;20.50;63.80;;;;;;5038404;28;20051;-76
2023/04/16 09:40:29;;;;;;;1.77;0.70;;;20.60;64.00;;;;;;5031883;28;20394;-76
2023/04/16 09:42:59;;;;;;;1.80;1.35;;;20.60;64.00;;;;;;5015483;28;20053;-73
2023/04/16 09:45:30;;;;;;;2.08;1.70;;;20.60;64.10;;;;;;5027236;28;20108;-75
2023/04/16 09:48:03;;;;;;;2.70;1.88;;;20.60;64.10;;;;;;5033553;28;20049;-74
2023/04/16 09:50:30;;;;;;;2.83;1.60;;;20.60;64.20;;;;;;5030757;28;20057;-75
2023/04/16 09:53:02;;;;;;;3.03;1.35;;;20.50;64.10;;;;;;5017751;28;20057;-75
2023/04/16 09:55:29;;;;;;;2.72;1.60;;;20.60;64.30;;;;;;5025462;28;20053;-75
2023/04/16 09:58:00;;;;;;;1.90;1.42;;;20.60;64.30;;;;;;5025540;28;20050;-75
2023/04/16 10:00:29;;;;;;;1.80;1.40;;;20.60;64.40;;;;;;5023538;28;20085;-87
2023/04/16 10:03:04;;;;;;;2.10;1.55;;;20.60;64.40;;;;;;5025966;28;20132;-78
2023/04/16 10:05:31;;;;;;;1.92;1.52;;;20.60;64.50;;;;;;5019394;28;20103;-76
2023/04/16 10:08:01;;;;;;;2.33;0.80;;;20.60;64.40;;;;;;5023955;28;20399;-75
2023/04/16 10:10:28;;;;;;;3.13;1.40;;;20.60;64.50;;;;;;5032687;28;20526;-75
2023/04/16 10:12:56;;;;;;;3.28;1.60;;;20.60;64.60;;;;;;5025620;28;20482;-75
2023/04/16 10:15:23;;;;;;;2.42;1.75;;;20.60;64.60;;;;;;5028385;28;20057;-76
2023/04/16 10:17:51;;;;;;;2.67;1.30;;;20.60;64.60;;;;;;5026264;28;20057;-75
2023/04/16 10:20:19;;;;;;;2.10;1.25;;;20.60;64.70;;;;;;5025846;28;20558;-77
2023/04/16 10:22:46;;;;;;;2.00;1.48;;;20.60;64.70;;;;;;5016992;28;20134;-75
2023/04/16 10:25:15;;;;;;;2.22;1.52;;;20.60;64.80;;;;;;5035498;28;20044;-76
2023/04/16 10:27:42;;;;;;;3.15;1.98;;;20.50;64.70;;;;;;5022317;28;20055;-77
2023/04/16 10:30:11;;;;;;;2.53;1.60;;;20.60;64.80;;;;;;5034330;28;20636;-77
2023/04/16 10:32:39;;;;;;;1.60;0.57;;;20.60;64.80;;;;;;5026580;28;20387;-76
2023/04/16 10:35:09;;;;;;;2.45;1.35;;;20.60;64.80;;;;;;5042268;28;20045;-76
2023/04/16 10:37:37;;;;;;;2.63;1.70;;;20.60;64.90;;;;;;5039416;28;20041;-77
2023/04/16 10:40:22;;;;;;;2.45;1.40;;;20.50;64.80;;;;;;5027213;28;20056;-75
2023/04/16 10:42:55;;;;;;;2.55;1.77;;;20.50;65.00;;;;;;5025953;28;20487;-76
2023/04/16 10:45:27;;;;;;;3.22;1.85;;;20.50;65.00;;;;;;5029238;28;20056;-76
2023/04/16 10:47:57;;;;;;;2.20;1.65;;;20.60;65.10;;;;;;5019603;28;20045;-75
2023/04/16 10:50:24;;;;;;;3.47;1.63;;;20.60;65.10;;;;;;5028629;28;20045;-75
2023/04/16 10:53:19;;;;;;;3.30;2.08;;;20.60;65.10;;;;;;5022548;28;20045;-76
2023/04/16 10:56:24;;;;;;;2.70;1.73;;;20.60;65.20;;;;;;5029889;28;20049;-78
2023/04/16 10:58:54;;;;;;;2.03;1.23;;;20.60;65.20;;;;;;4929433;28;20059;-76
2023/04/16 11:01:31;;;;;;;1.92;1.70;;;20.60;65.10;;;;;;4944560;28;20047;-76
2023/04/16 11:04:03;;;;;;;2.35;1.80;;;20.60;65.20;;;;;;4986471;28;20576;-77
2023/04/16 11:06:30;;;;;;;2.15;1.42;;;20.60;65.20;;;;;;5025972;28;20053;-76
2023/04/16 11:08:57;;;;;;;2.75;1.45;;;20.60;65.30;;;;;;5024893;28;20486;-76
2023/04/16 11:11:27;;;;;;;2.67;1.52;;;20.60;65.30;;;;;;5023381;28;20394;-76
2023/04/16 11:13:56;;;;;;;2.20;1.70;;;20.60;65.40;;;;;;5016117;28;20057;-75
2023/04/16 11:16:26;;;;;;;2.03;1.40;;;20.60;65.40;;;;;;5021994;28;20060;-76
2023/04/16 11:18:53;;;;;;;2.75;1.65;;;20.60;65.40;;;;;;5009043;28;20053;-84
2023/04/16 11:21:22;;;;;;;2.42;1.70;;;20.60;65.50;;;;;;5030514;28;20106;-84
2023/04/16 11:23:50;;;;;;;2.25;2.05;;;20.60;65.50;;;;;;5029502;28;20041;-77
2023/04/16 11:26:23;;;;;;;3.28;1.88;;;20.60;65.50;;;;;;5028124;28;20111;-77
2023/04/16 11:28:52;;;;;;;2.20;1.70;;;20.60;65.60;;;;;;5024706;28;20052;-77
2023/04/16 11:31:19;;;;;;;2.78;0.85;;;20.60;65.60;;;;;;5024441;28;20449;-78
2023/04/16 11:33:46;;;;;;;2.10;1.65;;;20.60;65.60;;;;;;5031128;28;20060;-83
2023/04/16 11:36:13;;;;;;;2.00;1.35;;;20.60;65.70;;;;;;5022117;28;20049;-84
2023/04/16 11:38:41;;;;;;;2.30;1.80;;;20.60;65.70;;;;;;5024521;28;20042;-84
2023/04/16 11:41:10;;;;;;;2.05;1.50;;;20.60;65.70;;;;;;5033900;28;20041;-84
2023/04/16 11:43:37;;;;;;;2.42;1.77;;;20.60;65.70;;;;;;5032599;28;20115;-85
2023/04/16 11:46:06;;;;;;;1.92;1.40;;;20.60;65.70;;;;;;5037965;28;20057;-86
2023/04/16 11:48:46;;;;;;;2.53;1.55;;;20.70;65.80;;;;;;5017288;28;20046;-77
2023/04/16 11:51:14;;;;;;;2.40;1.58;;;20.60;65.80;;;;;;5027802;28;20103;-76
2023/04/16 11:54:50;;;;;;;1.88;0.90;;;20.70;65.40;;;;;;5058732;27;20437;-63
2023/04/16 11:57:25;;;;;;;2.22;0.90;;;20.70;65.90;;;;;;5054291;28;20055;-64
2023/04/16 11:59:53;;;;;;;1.95;1.10;;;20.70;65.90;;;;;;5086028;28;20053;-64
2023/04/16 12:02:35;;;;;;;3.47;1.10;;;20.60;65.90;;;;;;5061071;28;20144;-62
2023/04/16 12:05:03;;;;;;;2.42;0.98;;;20.60;66.00;;;;;;5056962;28;20036;-73
2023/04/16 12:07:30;;;;;;;2.97;1.00;;;20.60;66.00;;;;;;5059540;28;20037;-64
2023/04/16 12:10:08;;;;;;;3.47;0.90;;;20.60;66.00;;;;;;5055390;28;20049;-62
2023/04/16 12:12:35;;;;;;;2.47;0.98;;;20.60;66.10;;;;;;5057155;28;20066;-66
2023/04/16 12:15:03;;;;;;;1.73;0.82;;;20.60;66.00;;;;;;5087013;28;20048;-68
2023/04/16 12:17:31;;;;;;;2.60;1.00;;;20.60;66.10;;;;;;5055059;28;20098;-71
2023/04/16 12:20:04;;;;;;;2.15;1.00;;;20.60;66.10;;;;;;5059825;28;20055;-75
2023/04/16 12:22:33;;;;;;;1.90;0.82;;;20.60;66.20;;;;;;5044311;28;20049;-75
2023/04/16 12:25:02;;;;;;;3.03;1.27;;;20.60;66.20;;;;;;5039220;28;20461;-74
2023/04/16 12:27:44;;;;;;;2.85;1.10;;;20.60;66.20;;;;;;5041750;28;20057;-73
2023/04/16 12:30:12;;;;;;;2.25;1.02;;;20.70;66.20;;;;;;5038819;28;20136;-73
2023/04/16 12:32:39;;;;;;;2.65;1.17;;;20.70;66.20;;;;;;5037817;28;20826;-73
2023/04/16 12:35:06;;;;;;;2.42;1.08;;;20.70;66.20;;;;;;5042184;28;20059;-72
2023/04/16 12:37:34;;;;;;;1.90;0.82;;;20.70;66.20;;;;;;5044578;28;20057;-72
2023/04/16 12:40:03;;;;;;;2.42;0.93;;;20.70;66.20;;;;;;5032820;28;20178;-74
2023/04/16 12:42:34;;;;;;;2.85;1.13;;;20.70;66.20;;;;;;5037389;28;20516;-73
2023/04/16 12:45:03;;;;;;;2.30;1.10;;;20.70;66.20;;;;;;5039173;28;20056;-72
2023/04/16 12:47:31;;;;;;;1.85;0.98;;;20.70;66.10;;;;;;5036054;28;20057;-72
2023/04/16 12:49:59;;;;;;;2.65;1.20;;;20.70;66.10;;;;;;5039932;28;20047;-76
2023/04/16 12:52:26;;;;;;;3.65;1.52;;;20.70;66.10;;;;;;5035731;28;20127;-67
2023/04/16 12:54:53;;;;;;;2.53;1.25;;;20.80;66.10;;;;;;5036757;28;20064;-67